createdAt,value
2023-09-10T00:03:27.271Z,17.11
2023-09-10T00:08:30.582Z,17.03
2023-09-10T00:13:32.371Z,17.01
2023-09-10T00:18:34.084Z,16.98
2023-09-10T00:23:37.104Z,16.85
2023-09-10T00:28:39.050Z,16.77
2023-09-10T00:33:40.685Z,16.75
2023-09-10T00:38:43.743Z,16.69
2023-09-10T00:43:45.581Z,16.65
2023-09-10T00:48:47.784Z,16.63
2023-09-10T00:53:50.950Z,16.55
2023-09-10T00:58:53.544Z,16.51
2023-09-10T01:03:55.988Z,16.44
2023-09-10T01:08:58.976Z,16.37
2023-09-10T01:14:10.087Z,16.38
2023-09-10T01:19:45.095Z,16.31
2023-09-10T01:24:51.211Z,16.30
2023-09-10T01:29:52.873Z,16.19
2023-09-10T01:35:00.539Z,16.24
2023-09-10T01:40:09.021Z,16.10
2023-09-10T01:45:11.626Z,16.08
2023-09-10T01:50:13.984Z,16.05
2023-09-10T01:55:17.067Z,15.99
2023-09-10T02:00:18.808Z,15.98
2023-09-10T02:05:20.511Z,15.97
2023-09-10T02:10:23.893Z,15.90
2023-09-10T02:15:25.841Z,15.83
2023-09-10T02:20:27.549Z,15.62
2023-09-10T02:25:32.621Z,15.63
2023-09-10T02:30:34.407Z,15.75
2023-09-10T02:35:36.076Z,15.71
2023-09-10T02:40:39.123Z,15.66
2023-09-10T02:45:41.147Z,15.59
2023-09-10T02:50:43.081Z,15.55
2023-09-10T02:55:46.210Z,15.51
2023-09-10T03:00:48.178Z,15.48
2023-09-10T03:05:50.264Z,15.47
2023-09-10T03:10:53.424Z,15.33
2023-09-10T03:15:55.252Z,15.30
2023-09-10T03:20:57.086Z,15.28
2023-09-10T03:26:00.768Z,15.22
2023-09-10T03:31:03.377Z,15.22
2023-09-10T03:36:05.942Z,15.15
2023-09-10T03:41:09.272Z,15.10
2023-09-10T03:46:12.220Z,15.04
2023-09-10T03:51:14.211Z,15.01
2023-09-10T03:56:17.360Z,14.96
2023-09-10T04:01:20.147Z,14.85
2023-09-10T04:06:22.078Z,14.91
2023-09-10T04:11:25.982Z,14.83
2023-09-10T04:16:27.839Z,14.83
2023-09-10T04:21:29.649Z,14.82
2023-09-10T04:26:32.694Z,14.80
2023-09-10T04:31:37.640Z,14.77
2023-09-10T04:36:39.472Z,14.76
2023-09-10T04:41:42.715Z,14.76
2023-09-10T04:46:44.729Z,14.73
2023-09-10T04:51:46.522Z,14.71
2023-09-10T04:56:49.795Z,14.68
2023-09-10T05:01:51.749Z,14.67
2023-09-10T05:06:53.672Z,14.70
2023-09-10T05:11:56.924Z,14.72
2023-09-10T05:16:59.545Z,14.68
2023-09-10T05:22:01.789Z,14.71
2023-09-10T05:27:05.293Z,14.58
2023-09-10T05:32:07.201Z,14.78
2023-09-10T05:37:09.006Z,14.69
2023-09-10T05:42:12.163Z,14.85
2023-09-10T05:47:14.067Z,14.90
2023-09-10T05:52:15.888Z,14.98
2023-09-10T05:57:19.245Z,15.08
2023-09-10T06:02:21.627Z,15.20
2023-09-10T06:07:23.538Z,15.35
2023-09-10T06:12:26.746Z,15.50
2023-09-10T06:17:29.288Z,15.66
2023-09-10T06:22:31.093Z,15.84
2023-09-10T06:27:34.339Z,16.02
2023-09-10T06:32:36.381Z,16.23
2023-09-10T06:37:39.709Z,16.19
2023-09-10T06:42:44.677Z,16.66
2023-09-10T06:48:04.872Z,16.84
2023-09-10T06:53:06.652Z,16.82
2023-09-10T06:58:09.738Z,17.28
2023-09-10T07:03:11.668Z,17.52
2023-09-10T07:08:13.479Z,17.75
2023-09-10T07:13:16.651Z,17.98
2023-09-10T07:18:18.265Z,18.25
2023-09-10T07:23:19.961Z,18.46
2023-09-10T07:28:23.107Z,18.74
2023-09-10T07:33:24.727Z,18.99
2023-09-10T07:38:26.709Z,19.29
2023-09-10T07:43:29.799Z,19.58
2023-09-10T07:48:31.418Z,19.85
2023-09-10T07:53:33.137Z,20.13
2023-09-10T07:58:36.194Z,20.38
2023-09-10T08:03:38.349Z,20.62
2023-09-10T08:08:40.333Z,20.86
2023-09-10T08:13:43.461Z,21.21
2023-09-10T08:18:45.174Z,21.49
2023-09-10T08:23:46.853Z,21.71
2023-09-10T08:28:49.932Z,22.09
2023-09-10T08:33:51.588Z,22.38
2023-09-10T08:38:53.231Z,22.67
2023-09-10T08:43:58.190Z,22.99
2023-09-10T08:49:00.931Z,23.33
2023-09-10T08:54:03.091Z,23.63
2023-09-10T08:59:07.519Z,23.89
2023-09-10T09:04:11.367Z,24.17
2023-09-10T09:09:15.953Z,24.50
2023-09-10T09:14:19.949Z,24.76
2023-09-10T09:19:22.596Z,25.02
2023-09-10T09:24:24.568Z,25.26
2023-09-10T09:29:28.690Z,25.51
2023-09-10T09:34:30.888Z,25.82
2023-09-10T09:39:32.537Z,26.13
2023-09-10T09:44:35.626Z,26.37
2023-09-10T09:49:43.540Z,26.54
2023-09-10T09:54:46.122Z,26.79
2023-09-10T09:59:50.312Z,26.93
2023-09-10T10:04:55.188Z,27.17
2023-09-10T10:09:59.790Z,27.40
2023-09-10T10:15:03.346Z,27.61
2023-09-10T10:20:07.390Z,27.85
2023-09-10T10:25:09.852Z,27.72
2023-09-10T10:30:14.537Z,28.22
2023-09-10T10:35:16.945Z,28.36
2023-09-10T10:40:20.128Z,28.52
2023-09-10T10:45:26.054Z,28.58
2023-09-10T10:50:28.945Z,29.10
2023-09-10T10:55:31.580Z,29.18
2023-09-10T11:00:34.836Z,29.51
2023-09-10T11:06:02.524Z,29.80
2023-09-10T11:11:05.732Z,29.94
2023-09-10T11:16:18.460Z,30.01
2023-09-10T11:21:19.996Z,30.59
2023-09-10T11:26:31.639Z,30.86
2023-09-10T11:31:39.652Z,31.07
2023-09-10T11:36:43.426Z,31.49
2023-09-10T11:41:46.580Z,31.74
2023-09-10T11:46:50.583Z,31.91
2023-09-10T11:51:54.537Z,32.17
2023-09-10T11:56:57.641Z,32.39
2023-09-10T12:02:01.055Z,32.47
2023-09-10T12:07:03.604Z,32.55
2023-09-10T12:12:09.930Z,32.62
2023-09-10T12:17:13.621Z,32.80
2023-09-10T12:22:15.416Z,33.16
2023-09-10T12:27:17.162Z,33.29
2023-09-10T12:32:21.117Z,33.44
2023-09-10T12:37:22.755Z,33.67
2023-09-10T12:42:24.808Z,33.82
2023-09-10T12:47:27.911Z,33.75
2023-09-10T12:52:29.632Z,33.67
2023-09-10T12:57:31.677Z,33.72
2023-09-10T13:02:36.041Z,34.05
2023-09-10T13:07:37.852Z,34.18
2023-09-10T13:12:40.178Z,34.47
2023-09-10T13:17:43.301Z,34.75
2023-09-10T13:22:45.291Z,34.98
2023-09-10T13:27:47.105Z,34.88
2023-09-10T13:32:50.211Z,34.70
2023-09-10T13:37:51.946Z,34.72
2023-09-10T13:42:53.630Z,34.68
2023-09-10T13:47:56.905Z,34.41
2023-09-10T13:52:58.653Z,34.36
2023-09-10T13:58:00.384Z,34.47
2023-09-10T14:03:04.461Z,34.53
2023-09-10T14:08:06.801Z,34.80
2023-09-10T14:13:08.577Z,34.99
2023-09-10T14:18:11.628Z,35.01
2023-09-10T14:23:13.371Z,35.04
2023-09-10T14:28:15.563Z,35.00
2023-09-10T14:33:18.668Z,35.22
2023-09-10T14:38:20.360Z,35.52
2023-09-10T14:43:22.072Z,35.61
2023-09-10T14:48:25.128Z,35.68
2023-09-10T14:53:26.866Z,35.55
2023-09-10T14:58:28.661Z,35.10
2023-09-10T15:03:31.740Z,35.25
2023-09-10T15:08:33.968Z,35.32
2023-09-10T15:13:35.709Z,35.63
2023-09-10T15:18:38.703Z,35.69
2023-09-10T15:23:41.766Z,35.64
2023-09-10T15:28:43.626Z,35.90
2023-09-10T15:33:46.616Z,36.06
2023-09-10T15:38:48.318Z,36.03
2023-09-10T15:43:50.012Z,36.21
2023-09-10T15:48:53.149Z,36.26
2023-09-10T15:53:54.804Z,36.17
2023-09-10T15:58:56.505Z,35.87
2023-09-10T16:03:59.600Z,36.02
2023-09-10T16:09:02.229Z,35.54
2023-09-10T16:14:05.543Z,35.29
2023-09-10T16:19:08.647Z,35.11
2023-09-10T16:24:10.333Z,35.00
2023-09-10T16:29:11.989Z,34.93
2023-09-10T16:34:15.073Z,34.62
2023-09-10T16:39:16.696Z,34.47
2023-09-10T16:44:19.913Z,34.37
2023-09-10T16:49:23.380Z,34.10
2023-09-10T16:54:25.042Z,33.70
2023-09-10T16:59:26.833Z,33.23
2023-09-10T17:04:29.910Z,32.70
2023-09-10T17:09:31.975Z,32.29
2023-09-10T17:14:33.976Z,31.63
2023-09-10T17:19:37.100Z,31.05
2023-09-10T17:24:38.821Z,30.52
2023-09-10T17:29:40.536Z,30.15
2023-09-10T17:34:43.600Z,29.81
2023-09-10T17:39:45.255Z,29.44
2023-09-10T17:44:47.355Z,29.02
2023-09-10T17:50:03.246Z,28.54
2023-09-10T17:55:08.164Z,28.13
2023-09-10T18:00:10.379Z,27.73
2023-09-10T18:05:13.388Z,27.39
2023-09-10T18:10:15.474Z,27.14
2023-09-10T18:15:17.197Z,26.85
2023-09-10T18:20:20.488Z,26.25
2023-09-10T18:25:22.222Z,26.29
2023-09-10T18:30:23.955Z,25.98
2023-09-10T18:35:27.038Z,25.76
2023-09-10T18:40:28.721Z,25.48
2023-09-10T18:45:30.372Z,25.26
2023-09-10T18:50:33.508Z,24.95
2023-09-10T18:55:35.290Z,24.77
2023-09-10T19:00:37.098Z,24.60
2023-09-10T19:05:43.258Z,24.40
2023-09-10T19:10:45.435Z,24.24
2023-09-10T19:15:50.705Z,23.98
2023-09-10T19:20:54.444Z,23.76
2023-09-10T19:25:56.114Z,23.61
2023-09-10T19:30:57.793Z,23.49
2023-09-10T19:36:04.525Z,23.33
2023-09-10T19:41:06.156Z,23.22
2023-09-10T19:46:07.773Z,23.13
2023-09-10T19:51:10.811Z,23.01
2023-09-10T19:56:13.058Z,22.88
2023-09-10T20:01:14.758Z,22.73
2023-09-10T20:06:17.936Z,22.58
2023-09-10T20:11:20.146Z,22.41
2023-09-10T20:16:22.163Z,22.29
2023-09-10T20:21:25.287Z,22.21
2023-09-10T20:26:28.781Z,22.10
2023-09-10T20:31:31.908Z,21.99
2023-09-10T20:36:34.914Z,21.91
2023-09-10T20:41:36.725Z,21.80
2023-09-10T20:46:38.505Z,21.71
2023-09-10T20:51:41.572Z,21.64
2023-09-10T20:56:43.270Z,21.54
2023-09-10T21:01:44.996Z,21.43
2023-09-10T21:06:48.232Z,21.31
2023-09-10T21:11:50.368Z,21.18
2023-09-10T21:16:52.255Z,21.08
2023-09-10T21:21:55.389Z,20.99
2023-09-10T21:26:57.036Z,20.93
2023-09-10T21:31:58.858Z,20.82
2023-09-10T21:37:02.005Z,20.70
2023-09-10T21:42:04.160Z,20.58
2023-09-10T21:47:06.648Z,20.48
2023-09-10T21:52:09.879Z,20.38
2023-09-10T21:57:11.581Z,20.29
2023-09-10T22:02:13.106Z,20.13
2023-09-10T22:07:16.164Z,20.02
2023-09-10T22:12:18.044Z,20.00
2023-09-10T22:17:20.183Z,19.96
2023-09-10T22:22:23.294Z,19.88
2023-09-10T22:27:24.982Z,19.84
2023-09-10T22:32:26.693Z,19.78
2023-09-10T22:37:29.542Z,19.72
2023-09-10T22:42:31.212Z,19.68
2023-09-10T22:47:32.876Z,19.56
2023-09-10T22:52:35.919Z,19.47
2023-09-10T22:57:37.591Z,19.43
2023-09-10T23:02:39.494Z,19.38
2023-09-10T23:07:42.666Z,19.29
2023-09-10T23:12:44.740Z,19.19
2023-09-10T23:17:46.774Z,19.16
2023-09-10T23:22:57.626Z,19.09
2023-09-10T23:27:59.240Z,18.82
2023-09-10T23:33:00.973Z,18.99
2023-09-10T23:38:04.089Z,18.87
2023-09-10T23:43:06.045Z,18.76
2023-09-10T23:48:07.816Z,18.61
2023-09-10T23:53:10.764Z,18.57
2023-09-10T23:58:12.409Z,18.43
